sensor_id;sensor_type;location;lat;lon;timestamp;temperature;humidity
6843;DHT22;3460;52.028;8.916;2023-12-20T03:35:25;5.80;99.90
6843;DHT22;3460;52.028;8.916;2023-12-20T03:37:52;5.80;99.90
6843;DHT22;3460;52.028;8.916;2023-12-20T03:40:18;5.80;99.90
6843;DHT22;3460;52.028;8.916;2023-12-20T03:42:45;6.00;99.90
6843;DHT22;3460;52.028;8.916;2023-12-20T03:45:12;6.00;99.90
6843;DHT22;3460;52.028;8.916;2023-12-20T03:47:39;5.90;99.90
6843;DHT22;3460;52.028;8.916;2023-12-20T03:50:06;5.90;99.90
6843;DHT22;3460;52.028;8.916;2023-12-20T03:52:35;6.00;99.90
6843;DHT22;3460;52.028;8.916;2023-12-20T03:55:01;6.00;99.90
6843;DHT22;3460;52.028;8.916;2023-12-20T03:57:28;6.00;99.90
6843;DHT22;3460;52.028;8.916;2023-12-20T03:59:55;6.00;99.90
6843;DHT22;3460;52.028;8.916;2023-12-20T04:02:22;6.00;99.90
6843;DHT22;3460;52.028;8.916;2023-12-20T04:04:49;6.10;99.90
6843;DHT22;3460;52.028;8.916;2023-12-20T04:07:15;6.00;99.90
6843;DHT22;3460;52.028;8.916;2023-12-20T04:09:43;6.00;99.90
6843;DHT22;3460;52.028;8.916;2023-12-20T04:12:10;6.00;99.90
6843;DHT22;3460;52.028;8.916;2023-12-20T04:14:37;6.00;99.90
6843;DHT22;3460;52.028;8.916;2023-12-20T04:17:04;6.00;99.90
6843;DHT22;3460;52.028;8.916;2023-12-20T04:19:31;6.00;99.90
6843;DHT22;3460;52.028;8.916;2023-12-20T04:21:57;5.90;99.90
6843;DHT22;3460;52.028;8.916;2023-12-20T04:24:24;6.00;99.90
6843;DHT22;3460;52.028;8.916;2023-12-20T04:26:52;6.00;99.90
6843;DHT22;3460;52.028;8.916;2023-12-20T04:29:19;6.00;99.90
6843;DHT22;3460;52.028;8.916;2023-12-20T04:31:46;6.00;99.90
6843;DHT22;3460;52.028;8.916;2023-12-20T04:34:13;6.00;99.90
6843;DHT22;3460;52.028;8.916;2023-12-20T04:36:39;6.00;99.90
6843;DHT22;3460;52.028;8.916;2023-12-20T04:39:06;6.00;99.90
6843;DHT22;3460;52.028;8.916;2023-12-20T04:41:33;6.10;99.90
6843;DHT22;3460;52.028;8.916;2023-12-20T04:44:01;6.10;99.90
6843;DHT22;3460;52.028;8.916;2023-12-20T04:46:28;6.00;99.90
6843;DHT22;3460;52.028;8.916;2023-12-20T04:48:55;6.00;99.90
6843;DHT22;3460;52.028;8.916;2023-12-20T04:51:22;6.10;99.90
6843;DHT22;3460;52.028;8.916;2023-12-20T04:53:48;6.00;99.90
6843;DHT22;3460;52.028;8.916;2023-12-20T04:56:15;6.10;99.90
6843;DHT22;3460;52.028;8.916;2023-12-20T04:58:42;6.00;99.90
6843;DHT22;3460;52.028;8.916;2023-12-20T05:01:10;6.00;99.90
6843;DHT22;3460;52.028;8.916;2023-12-20T05:03:37;6.10;99.90
6843;DHT22;3460;52.028;8.916;2023-12-20T05:06:04;6.00;99.90
6843;DHT22;3460;52.028;8.916;2023-12-20T05:08:31;6.10;99.90
6843;DHT22;3460;52.028;8.916;2023-12-20T05:10:58;6.00;99.90
6843;DHT22;3460;52.028;8.916;2023-12-20T05:13:25;6.00;99.90
6843;DHT22;3460;52.028;8.916;2023-12-20T05:15:51;6.00;99.90
6843;DHT22;3460;52.028;8.916;2023-12-20T05:18:20;6.00;99.90
6843;DHT22;3460;52.028;8.916;2023-12-20T05:20:47;6.10;99.90
6843;DHT22;3460;52.028;8.916;2023-12-20T05:23:15;6.10;99.90
6843;DHT22;3460;52.028;8.916;2023-12-20T05:25:42;6.10;99.90
6843;DHT22;3460;52.028;8.916;2023-12-20T05:28:09;6.10;99.90
6843;DHT22;3460;52.028;8.916;2023-12-20T05:30:36;6.10;99.90
6843;DHT22;3460;52.028;8.916;2023-12-20T05:33:04;6.10;99.90
6843;DHT22;3460;52.028;8.916;2023-12-20T05:35:35;6.20;99.90
6843;DHT22;3460;52.028;8.916;2023-12-20T05:38:03;6.20;99.90
6843;DHT22;3460;52.028;8.916;2023-12-20T05:40:30;6.20;99.90
6843;DHT22;3460;52.028;8.916;2023-12-20T05:42:57;6.20;99.90
6843;DHT22;3460;52.028;8.916;2023-12-20T05:45:24;6.30;99.90
6843;DHT22;3460;52.028;8.916;2023-12-20T05:47:51;6.20;99.90
6843;DHT22;3460;52.028;8.916;2023-12-20T05:50:17;6.10;99.90
6843;DHT22;3460;52.028;8.916;2023-12-20T05:52:45;6.10;99.90
6843;DHT22;3460;52.028;8.916;2023-12-20T05:55:12;6.10;99.90
6843;DHT22;3460;52.028;8.916;2023-12-20T05:57:39;6.10;99.90
6843;DHT22;3460;52.028;8.916;2023-12-20T06:00:09;6.10;99.90
6843;DHT22;3460;52.028;8.916;2023-12-20T06:02:36;6.10;99.90
6843;DHT22;3460;52.028;8.916;2023-12-20T06:05:04;6.10;99.90
6843;DHT22;3460;52.028;8.916;2023-12-20T06:07:31;6.10;99.90
6843;DHT22;3460;52.028;8.916;2023-12-20T06:09:59;6.10;99.90
6843;DHT22;3460;52.028;8.916;2023-12-20T06:12:26;6.10;99.90
6843;DHT22;3460;52.028;8.916;2023-12-20T06:14:54;6.00;99.90
6843;DHT22;3460;52.028;8.916;2023-12-20T06:17:22;6.10;99.90
6843;DHT22;3460;52.028;8.916;2023-12-20T06:19:51;6.00;99.90
6843;DHT22;3460;52.028;8.916;2023-12-20T06:22:18;6.00;99.90
6843;DHT22;3460;52.028;8.916;2023-12-20T06:24:45;6.10;99.90
6843;DHT22;3460;52.028;8.916;2023-12-20T06:27:15;6.10;99.90
6843;DHT22;3460;52.028;8.916;2023-12-20T06:29:42;6.10;99.90
6843;DHT22;3460;52.028;8.916;2023-12-20T06:32:10;6.10;99.90
6843;DHT22;3460;52.028;8.916;2023-12-20T06:34:37;6.10;99.90
6843;DHT22;3460;52.028;8.916;2023-12-20T06:37:04;6.00;99.90
6843;DHT22;3460;52.028;8.916;2023-12-20T06:39:31;6.10;99.90
6843;DHT22;3460;52.028;8.916;2023-12-20T06:41:59;6.10;99.90
6843;DHT22;3460;52.028;8.916;2023-12-20T06:44:27;6.10;99.90
6843;DHT22;3460;52.028;8.916;2023-12-20T06:46:54;6.10;99.90
6843;DHT22;3460;52.028;8.916;2023-12-20T06:49:21;6.00;99.90
6843;DHT22;3460;52.028;8.916;2023-12-20T06:51:48;6.00;99.90
6843;DHT22;3460;52.028;8.916;2023-12-20T06:54:14;6.00;99.90
6843;DHT22;3460;52.028;8.916;2023-12-20T06:56:41;6.10;99.90
6843;DHT22;3460;52.028;8.916;2023-12-20T06:59:08;6.10;99.90
6843;DHT22;3460;52.028;8.916;2023-12-20T07:01:36;6.20;99.90
6843;DHT22;3460;52.028;8.916;2023-12-20T07:04:03;6.10;99.90
6843;DHT22;3460;52.028;8.916;2023-12-20T07:06:30;6.10;99.90
6843;DHT22;3460;52.028;8.916;2023-12-20T07:08:57;6.10;99.90
6843;DHT22;3460;52.028;8.916;2023-12-20T07:11:24;6.10;99.90
6843;DHT22;3460;52.028;8.916;2023-12-20T07:13:51;6.10;99.90
6843;DHT22;3460;52.028;8.916;2023-12-20T07:16:18;6.00;99.90
6843;DHT22;3460;52.028;8.916;2023-12-20T07:18:46;5.90;99.90
6843;DHT22;3460;52.028;8.916;2023-12-20T07:21:13;6.00;99.90
6843;DHT22;3460;52.028;8.916;2023-12-20T07:23:41;6.00;99.90
6843;DHT22;3460;52.028;8.916;2023-12-20T07:26:08;6.10;99.90
6843;DHT22;3460;52.028;8.916;2023-12-20T07:28:34;6.10;99.90
6843;DHT22;3460;52.028;8.916;2023-12-20T07:31:01;6.10;99.90
6843;DHT22;3460;52.028;8.916;2023-12-20T07:33:28;6.10;99.90
6843;DHT22;3460;52.028;8.916;2023-12-20T07:35:56;6.10;99.90
6843;DHT22;3460;52.028;8.916;2023-12-20T07:38:24;6.20;99.90
6843;DHT22;3460;52.028;8.916;2023-12-20T07:40:50;6.20;99.90
6843;DHT22;3460;52.028;8.916;2023-12-20T07:43:17;6.20;99.90
6843;DHT22;3460;52.028;8.916;2023-12-20T07:45:44;6.20;99.90
6843;DHT22;3460;52.028;8.916;2023-12-20T07:48:11;6.20;99.90
6843;DHT22;3460;52.028;8.916;2023-12-20T07:50:38;6.20;99.90
6843;DHT22;3460;52.028;8.916;2023-12-20T07:53:06;6.20;99.90
6843;DHT22;3460;52.028;8.916;2023-12-20T07:55:33;6.10;99.90
6843;DHT22;3460;52.028;8.916;2023-12-20T07:58:00;6.20;99.90
6843;DHT22;3460;52.028;8.916;2023-12-20T08:00:27;6.10;99.90
6843;DHT22;3460;52.028;8.916;2023-12-20T08:02:54;6.20;99.90
6843;DHT22;3460;52.028;8.916;2023-12-20T08:05:21;6.20;99.90
6843;DHT22;3460;52.028;8.916;2023-12-20T08:07:47;6.20;99.90
6843;DHT22;3460;52.028;8.916;2023-12-20T08:10:16;6.20;99.90
6843;DHT22;3460;52.028;8.916;2023-12-20T08:12:44;6.20;99.90
6843;DHT22;3460;52.028;8.916;2023-12-20T08:15:11;6.20;99.90
6843;DHT22;3460;52.028;8.916;2023-12-20T08:17:38;6.30;99.90
6843;DHT22;3460;52.028;8.916;2023-12-20T08:20:06;6.20;99.90
6843;DHT22;3460;52.028;8.916;2023-12-20T08:22:33;6.20;99.90
6843;DHT22;3460;52.028;8.916;2023-12-20T08:24:59;6.20;99.90
6843;DHT22;3460;52.028;8.916;2023-12-20T08:27:28;6.30;99.90
6843;DHT22;3460;52.028;8.916;2023-12-20T08:29:56;6.40;99.90
6843;DHT22;3460;52.028;8.916;2023-12-20T08:32:25;6.40;99.90
6843;DHT22;3460;52.028;8.916;2023-12-20T08:34:52;6.40;99.90
6843;DHT22;3460;52.028;8.916;2023-12-20T08:37:18;6.40;99.90
6843;DHT22;3460;52.028;8.916;2023-12-20T08:39:45;6.40;99.90
6843;DHT22;3460;52.028;8.916;2023-12-20T08:42:12;6.40;99.90
6843;DHT22;3460;52.028;8.916;2023-12-20T08:44:40;6.40;99.90
6843;DHT22;3460;52.028;8.916;2023-12-20T08:47:07;6.40;99.90
6843;DHT22;3460;52.028;8.916;2023-12-20T08:49:34;6.50;99.90
6843;DHT22;3460;52.028;8.916;2023-12-20T08:52:00;6.50;99.90
6843;DHT22;3460;52.028;8.916;2023-12-20T08:54:27;6.50;99.90
6843;DHT22;3460;52.028;8.916;2023-12-20T08:56:54;6.50;99.90
6843;DHT22;3460;52.028;8.916;2023-12-20T08:59:21;6.50;99.90
6843;DHT22;3460;52.028;8.916;2023-12-20T09:01:49;6.50;99.90
6843;DHT22;3460;52.028;8.916;2023-12-20T09:04:20;6.40;99.90
6843;DHT22;3460;52.028;8.916;2023-12-20T09:06:46;6.40;99.90
6843;DHT22;3460;52.028;8.916;2023-12-20T09:09:13;6.40;99.90
6843;DHT22;3460;52.028;8.916;2023-12-20T09:11:41;6.40;99.90
6843;DHT22;3460;52.028;8.916;2023-12-20T09:14:07;6.40;99.90
6843;DHT22;3460;52.028;8.916;2023-12-20T09:16:34;6.50;99.90
6843;DHT22;3460;52.028;8.916;2023-12-20T09:19:02;6.40;99.90
6843;DHT22;3460;52.028;8.916;2023-12-20T09:21:29;6.50;99.90
6843;DHT22;3460;52.028;8.916;2023-12-20T09:23:56;6.50;99.90
6843;DHT22;3460;52.028;8.916;2023-12-20T09:26:23;6.50;99.90
6843;DHT22;3460;52.028;8.916;2023-12-20T09:28:50;6.50;99.90
6843;DHT22;3460;52.028;8.916;2023-12-20T09:31:16;6.50;99.90
6843;DHT22;3460;52.028;8.916;2023-12-20T09:33:43;6.40;99.90
6843;DHT22;3460;52.028;8.916;2023-12-20T09:36:11;6.50;99.90
6843;DHT22;3460;52.028;8.916;2023-12-20T09:38:39;6.50;99.90
6843;DHT22;3460;52.028;8.916;2023-12-20T09:41:06;6.50;99.90
6843;DHT22;3460;52.028;8.916;2023-12-20T09:43:37;6.50;99.90
6843;DHT22;3460;52.028;8.916;2023-12-20T09:46:06;6.50;99.90
6843;DHT22;3460;52.028;8.916;2023-12-20T09:48:33;6.60;99.90
6843;DHT22;3460;52.028;8.916;2023-12-20T09:51:01;6.70;99.90
6843;DHT22;3460;52.028;8.916;2023-12-20T09:53:29;6.70;99.90
6843;DHT22;3460;52.028;8.916;2023-12-20T09:55:58;6.70;99.90
6843;DHT22;3460;52.028;8.916;2023-12-20T09:58:26;6.70;99.90
6843;DHT22;3460;52.028;8.916;2023-12-20T10:00:53;6.70;99.90
6843;DHT22;3460;52.028;8.916;2023-12-20T10:03:25;6.70;99.90
6843;DHT22;3460;52.028;8.916;2023-12-20T10:05:53;6.60;99.90
6843;DHT22;3460;52.028;8.916;2023-12-20T10:08:21;6.70;99.90
6843;DHT22;3460;52.028;8.916;2023-12-20T10:10:50;6.60;99.90
6843;DHT22;3460;52.028;8.916;2023-12-20T10:13:17;6.70;99.90
6843;DHT22;3460;52.028;8.916;2023-12-20T10:15:44;6.70;99.90
6843;DHT22;3460;52.028;8.916;2023-12-20T10:18:12;6.70;99.90
6843;DHT22;3460;52.028;8.916;2023-12-20T10:20:40;6.70;99.90
6843;DHT22;3460;52.028;8.916;2023-12-20T10:23:08;6.70;99.90
6843;DHT22;3460;52.028;8.916;2023-12-20T10:25:35;6.70;99.90
6843;DHT22;3460;52.028;8.916;2023-12-20T10:28:13;6.70;99.90
6843;DHT22;3460;52.028;8.916;2023-12-20T10:30:42;6.80;99.90
6843;DHT22;3460;52.028;8.916;2023-12-20T10:33:09;6.70;99.90
6843;DHT22;3460;52.028;8.916;2023-12-20T10:35:38;6.70;99.90
6843;DHT22;3460;52.028;8.916;2023-12-20T10:38:06;6.70;99.90
6843;DHT22;3460;52.028;8.916;2023-12-20T10:40:35;6.70;99.90
6843;DHT22;3460;52.028;8.916;2023-12-20T10:43:03;6.80;99.90
6843;DHT22;3460;52.028;8.916;2023-12-20T10:45:32;6.70;99.90
6843;DHT22;3460;52.028;8.916;2023-12-20T10:47:59;6.70;99.90
6843;DHT22;3460;52.028;8.916;2023-12-20T10:50:26;6.70;99.90
6843;DHT22;3460;52.028;8.916;2023-12-20T10:52:54;6.70;99.90
6843;DHT22;3460;52.028;8.916;2023-12-20T10:55:22;6.80;99.90
6843;DHT22;3460;52.028;8.916;2023-12-20T10:57:50;6.80;99.90
6843;DHT22;3460;52.028;8.916;2023-12-20T11:00:19;6.70;99.90
6843;DHT22;3460;52.028;8.916;2023-12-20T11:02:49;6.70;99.90
6843;DHT22;3460;52.028;8.916;2023-12-20T11:05:25;6.70;99.90
6843;DHT22;3460;52.028;8.916;2023-12-20T11:07:58;6.80;99.90
6843;DHT22;3460;52.028;8.916;2023-12-20T11:10:31;6.70;99.90
6843;DHT22;3460;52.028;8.916;2023-12-20T11:13:08;6.70;99.90
6843;DHT22;3460;52.028;8.916;2023-12-20T11:15:36;6.80;99.90
6843;DHT22;3460;52.028;8.916;2023-12-20T11:18:05;6.80;99.90
6843;DHT22;3460;52.028;8.916;2023-12-20T11:20:36;6.70;99.90
6843;DHT22;3460;52.028;8.916;2023-12-20T11:23:04;6.70;99.90
6843;DHT22;3460;52.028;8.916;2023-12-20T11:25:46;6.80;99.90
6843;DHT22;3460;52.028;8.916;2023-12-20T11:28:14;6.80;99.90
6843;DHT22;3460;52.028;8.916;2023-12-20T11:30:46;6.90;99.90
6843;DHT22;3460;52.028;8.916;2023-12-20T11:33:15;6.90;99.90
6843;DHT22;3460;52.028;8.916;2023-12-20T11:35:42;6.90;99.90
6843;DHT22;3460;52.028;8.916;2023-12-20T11:38:10;7.00;99.90
6843;DHT22;3460;52.028;8.916;2023-12-20T11:40:37;7.00;99.90
6843;DHT22;3460;52.028;8.916;2023-12-20T11:43:04;6.90;99.90
6843;DHT22;3460;52.028;8.916;2023-12-20T11:45:31;7.00;99.90
6843;DHT22;3460;52.028;8.916;2023-12-20T11:48:00;7.00;99.90
6843;DHT22;3460;52.028;8.916;2023-12-20T11:50:29;7.00;99.90
6843;DHT22;3460;52.028;8.916;2023-12-20T11:52:56;7.00;99.90
6843;DHT22;3460;52.028;8.916;2023-12-20T11:55:23;7.00;99.90
6843;DHT22;3460;52.028;8.916;2023-12-20T11:57:51;7.10;99.90
6843;DHT22;3460;52.028;8.916;2023-12-20T12:00:18;7.00;99.90
6843;DHT22;3460;52.028;8.916;2023-12-20T12:02:56;6.90;99.90
6843;DHT22;3460;52.028;8.916;2023-12-20T12:05:23;7.00;99.90
6843;DHT22;3460;52.028;8.916;2023-12-20T12:07:51;6.90;99.90
6843;DHT22;3460;52.028;8.916;2023-12-20T12:10:18;6.90;99.90
6843;DHT22;3460;52.028;8.916;2023-12-20T12:12:46;6.90;99.90
6843;DHT22;3460;52.028;8.916;2023-12-20T12:15:14;6.90;99.90
6843;DHT22;3460;52.028;8.916;2023-12-20T12:17:41;6.90;99.90
6843;DHT22;3460;52.028;8.916;2023-12-20T12:20:09;7.00;99.90
6843;DHT22;3460;52.028;8.916;2023-12-20T12:22:36;6.90;99.90
6843;DHT22;3460;52.028;8.916;2023-12-20T12:25:11;6.90;99.90
6843;DHT22;3460;52.028;8.916;2023-12-20T12:27:40;6.90;99.90
6843;DHT22;3460;52.028;8.916;2023-12-20T12:30:09;7.00;99.90
6843;DHT22;3460;52.028;8.916;2023-12-20T12:32:38;7.00;99.90
6843;DHT22;3460;52.028;8.916;2023-12-20T12:35:06;7.00;99.90
6843;DHT22;3460;52.028;8.916;2023-12-20T12:37:35;6.90;99.90
6843;DHT22;3460;52.028;8.916;2023-12-20T12:40:04;6.90;99.90
6843;DHT22;3460;52.028;8.916;2023-12-20T12:42:33;7.00;99.90
6843;DHT22;3460;52.028;8.916;2023-12-20T12:44:59;7.00;99.90
6843;DHT22;3460;52.028;8.916;2023-12-20T12:47:26;7.00;99.90
6843;DHT22;3460;52.028;8.916;2023-12-20T12:49:53;7.00;99.90
6843;DHT22;3460;52.028;8.916;2023-12-20T12:52:20;7.00;99.90
6843;DHT22;3460;52.028;8.916;2023-12-20T12:54:47;7.00;99.90
6843;DHT22;3460;52.028;8.916;2023-12-20T12:57:14;7.00;99.90
6843;DHT22;3460;52.028;8.916;2023-12-20T12:59:43;7.10;99.90
6843;DHT22;3460;52.028;8.916;2023-12-20T13:02:11;7.10;99.90
6843;DHT22;3460;52.028;8.916;2023-12-20T13:04:39;7.10;99.90
6843;DHT22;3460;52.028;8.916;2023-12-20T13:07:06;7.10;99.90
6843;DHT22;3460;52.028;8.916;2023-12-20T13:09:33;7.00;99.90
6843;DHT22;3460;52.028;8.916;2023-12-20T13:12:00;7.00;99.90
6843;DHT22;3460;52.028;8.916;2023-12-20T13:14:29;7.00;99.90
6843;DHT22;3460;52.028;8.916;2023-12-20T13:16:57;7.00;99.90
6843;DHT22;3460;52.028;8.916;2023-12-20T13:19:24;6.90;99.90
6843;DHT22;3460;52.028;8.916;2023-12-20T13:21:51;6.50;99.90
6843;DHT22;3460;52.028;8.916;2023-12-20T13:24:17;6.30;99.90
6843;DHT22;3460;52.028;8.916;2023-12-20T13:26:44;6.10;99.90
6843;DHT22;3460;52.028;8.916;2023-12-20T13:29:11;5.90;99.90
6843;DHT22;3460;52.028;8.916;2023-12-20T13:31:38;5.80;99.90
6843;DHT22;3460;52.028;8.916;2023-12-20T13:34:06;5.80;99.90
6843;DHT22;3460;52.028;8.916;2023-12-20T13:36:33;5.70;99.90
6843;DHT22;3460;52.028;8.916;2023-12-20T13:39:02;5.70;99.90
6843;DHT22;3460;52.028;8.916;2023-12-20T13:41:30;5.70;99.90
6843;DHT22;3460;52.028;8.916;2023-12-20T13:43:57;5.80;99.90
6843;DHT22;3460;52.028;8.916;2023-12-20T13:46:24;5.70;99.90
6843;DHT22;3460;52.028;8.916;2023-12-20T13:48:50;5.70;99.90
6843;DHT22;3460;52.028;8.916;2023-12-20T13:51:19;5.70;99.90
6843;DHT22;3460;52.028;8.916;2023-12-20T13:53:46;5.70;99.90
6843;DHT22;3460;52.028;8.916;2023-12-20T13:56:13;5.70;99.90
6843;DHT22;3460;52.028;8.916;2023-12-20T13:58:40;5.70;99.90
6843;DHT22;3460;52.028;8.916;2023-12-20T14:01:08;5.70;99.90
6843;DHT22;3460;52.028;8.916;2023-12-20T14:03:35;5.80;99.90
6843;DHT22;3460;52.028;8.916;2023-12-20T14:06:02;5.70;99.90
6843;DHT22;3460;52.028;8.916;2023-12-20T14:08:31;5.70;99.90
6843;DHT22;3460;52.028;8.916;2023-12-20T14:10:57;5.70;99.90
6843;DHT22;3460;52.028;8.916;2023-12-20T14:13:24;5.80;99.90
6843;DHT22;3460;52.028;8.916;2023-12-20T14:15:51;5.70;99.90
6843;DHT22;3460;52.028;8.916;2023-12-20T14:18:19;5.70;99.90
6843;DHT22;3460;52.028;8.916;2023-12-20T14:20:47;5.80;99.90
6843;DHT22;3460;52.028;8.916;2023-12-20T14:23:16;5.80;99.90
6843;DHT22;3460;52.028;8.916;2023-12-20T14:25:44;5.80;99.90
6843;DHT22;3460;52.028;8.916;2023-12-20T14:28:11;5.70;99.90
6843;DHT22;3460;52.028;8.916;2023-12-20T14:30:39;5.80;99.90
6843;DHT22;3460;52.028;8.916;2023-12-20T14:33:06;5.80;99.90
6843;DHT22;3460;52.028;8.916;2023-12-20T14:35:33;5.80;99.90
6843;DHT22;3460;52.028;8.916;2023-12-20T14:38:00;5.90;99.90
6843;DHT22;3460;52.028;8.916;2023-12-20T14:40:27;5.80;99.90
6843;DHT22;3460;52.028;8.916;2023-12-20T14:42:55;5.80;99.90
6843;DHT22;3460;52.028;8.916;2023-12-20T14:45:23;5.90;99.90
6843;DHT22;3460;52.028;8.916;2023-12-20T14:47:49;5.90;99.90
6843;DHT22;3460;52.028;8.916;2023-12-20T14:50:16;5.90;99.90
6843;DHT22;3460;52.028;8.916;2023-12-20T14:52:44;5.90;99.90
6843;DHT22;3460;52.028;8.916;2023-12-20T14:55:11;5.80;99.90
6843;DHT22;3460;52.028;8.916;2023-12-20T14:57:38;5.90;99.90
6843;DHT22;3460;52.028;8.916;2023-12-20T15:00:07;5.90;99.90
6843;DHT22;3460;52.028;8.916;2023-12-20T15:02:34;5.80;99.90
6843;DHT22;3460;52.028;8.916;2023-12-20T15:05:01;5.80;99.90
6843;DHT22;3460;52.028;8.916;2023-12-20T15:07:28;5.80;99.90
6843;DHT22;3460;52.028;8.916;2023-12-20T15:09:55;5.90;99.90
6843;DHT22;3460;52.028;8.916;2023-12-20T15:12:22;5.80;99.90
6843;DHT22;3460;52.028;8.916;2023-12-20T15:14:49;5.80;99.90
6843;DHT22;3460;52.028;8.916;2023-12-20T15:17:18;5.80;99.90
6843;DHT22;3460;52.028;8.916;2023-12-20T15:19:44;5.80;99.90
6843;DHT22;3460;52.028;8.916;2023-12-20T15:22:11;5.80;99.90
6843;DHT22;3460;52.028;8.916;2023-12-20T15:24:38;5.70;99.90
6843;DHT22;3460;52.028;8.916;2023-12-20T15:27:06;5.80;99.90
6843;DHT22;3460;52.028;8.916;2023-12-20T15:29:33;5.70;99.90
6843;DHT22;3460;52.028;8.916;2023-12-20T15:32:00;5.70;99.90
6843;DHT22;3460;52.028;8.916;2023-12-20T15:34:28;5.80;99.90
6843;DHT22;3460;52.028;8.916;2023-12-20T15:36:55;5.70;99.90
6843;DHT22;3460;52.028;8.916;2023-12-20T15:39:22;5.70;99.90
6843;DHT22;3460;52.028;8.916;2023-12-20T15:41:49;5.60;99.90
6843;DHT22;3460;52.028;8.916;2023-12-20T15:44:16;5.60;99.90
6843;DHT22;3460;52.028;8.916;2023-12-20T15:46:43;5.60;99.90
6843;DHT22;3460;52.028;8.916;2023-12-20T15:49:09;5.60;99.90
6843;DHT22;3460;52.028;8.916;2023-12-20T15:51:38;5.60;99.90
6843;DHT22;3460;52.028;8.916;2023-12-20T15:54:05;5.60;99.90
6843;DHT22;3460;52.028;8.916;2023-12-20T15:56:33;5.60;99.90
6843;DHT22;3460;52.028;8.916;2023-12-20T15:59:02;5.60;99.90
6843;DHT22;3460;52.028;8.916;2023-12-20T16:01:29;5.60;99.90
6843;DHT22;3460;52.028;8.916;2023-12-20T16:03:56;5.60;99.90
6843;DHT22;3460;52.028;8.916;2023-12-20T16:06:23;5.60;99.90
6843;DHT22;3460;52.028;8.916;2023-12-20T16:08:51;5.70;99.90
6843;DHT22;3460;52.028;8.916;2023-12-20T16:11:18;5.70;99.90
6843;DHT22;3460;52.028;8.916;2023-12-20T16:13:45;5.70;99.90
6843;DHT22;3460;52.028;8.916;2023-12-20T16:16:12;5.70;99.90
6843;DHT22;3460;52.028;8.916;2023-12-20T16:18:39;5.80;99.90
6843;DHT22;3460;52.028;8.916;2023-12-20T16:21:06;5.80;99.90
6843;DHT22;3460;52.028;8.916;2023-12-20T16:23:32;5.80;99.90
6843;DHT22;3460;52.028;8.916;2023-12-20T16:26:01;5.70;99.90
6843;DHT22;3460;52.028;8.916;2023-12-20T16:28:27;5.80;99.90
6843;DHT22;3460;52.028;8.916;2023-12-20T16:30:54;5.70;99.90
6843;DHT22;3460;52.028;8.916;2023-12-20T16:33:22;5.70;99.90
6843;DHT22;3460;52.028;8.916;2023-12-20T16:35:49;5.70;99.90
6843;DHT22;3460;52.028;8.916;2023-12-20T16:38:16;5.70;99.90
6843;DHT22;3460;52.028;8.916;2023-12-20T16:40:42;5.70;99.90
6843;DHT22;3460;52.028;8.916;2023-12-20T16:43:11;5.60;99.90
6843;DHT22;3460;52.028;8.916;2023-12-20T16:45:38;5.70;99.90
6843;DHT22;3460;52.028;8.916;2023-12-20T16:48:05;5.70;99.90
6843;DHT22;3460;52.028;8.916;2023-12-20T16:50:32;5.70;99.90
6843;DHT22;3460;52.028;8.916;2023-12-20T16:52:59;5.70;99.90
6843;DHT22;3460;52.028;8.916;2023-12-20T16:55:26;5.70;99.90
6843;DHT22;3460;52.028;8.916;2023-12-20T16:57:54;5.70;99.90
6843;DHT22;3460;52.028;8.916;2023-12-20T17:00:23;5.70;99.90
6843;DHT22;3460;52.028;8.916;2023-12-20T17:02:51;5.70;99.90
6843;DHT22;3460;52.028;8.916;2023-12-20T17:05:18;5.70;99.90
6843;DHT22;3460;52.028;8.916;2023-12-20T17:07:45;5.70;99.90
6843;DHT22;3460;52.028;8.916;2023-12-20T17:10:12;5.70;99.90
6843;DHT22;3460;52.028;8.916;2023-12-20T17:12:39;5.70;99.90
6843;DHT22;3460;52.028;8.916;2023-12-20T17:15:06;5.80;99.90
6843;DHT22;3460;52.028;8.916;2023-12-20T17:17:35;5.70;99.90
6843;DHT22;3460;52.028;8.916;2023-12-20T17:20:01;5.80;99.90
6843;DHT22;3460;52.028;8.916;2023-12-20T17:22:29;5.80;99.90
6843;DHT22;3460;52.028;8.916;2023-12-20T17:24:55;5.90;99.90
6843;DHT22;3460;52.028;8.916;2023-12-20T17:27:22;5.90;99.90
6843;DHT22;3460;52.028;8.916;2023-12-20T17:29:49;6.00;99.90
6843;DHT22;3460;52.028;8.916;2023-12-20T17:32:16;6.10;99.90
6843;DHT22;3460;52.028;8.916;2023-12-20T17:34:44;6.20;99.90
6843;DHT22;3460;52.028;8.916;2023-12-20T17:37:11;6.20;99.90
6843;DHT22;3460;52.028;8.916;2023-12-20T17:39:38;6.30;99.90
6843;DHT22;3460;52.028;8.916;2023-12-20T17:42:05;6.30;99.90
6843;DHT22;3460;52.028;8.916;2023-12-20T17:44:32;6.40;99.90
6843;DHT22;3460;52.028;8.916;2023-12-20T17:46:59;6.40;99.90
6843;DHT22;3460;52.028;8.916;2023-12-20T17:49:26;6.40;99.90
6843;DHT22;3460;52.028;8.916;2023-12-20T17:51:54;6.40;99.90
6843;DHT22;3460;52.028;8.916;2023-12-20T17:54:21;6.40;99.90
6843;DHT22;3460;52.028;8.916;2023-12-20T17:56:49;6.40;99.90
6843;DHT22;3460;52.028;8.916;2023-12-20T17:59:16;6.50;99.90
6843;DHT22;3460;52.028;8.916;2023-12-20T18:01:42;6.50;99.90
6843;DHT22;3460;52.028;8.916;2023-12-20T18:04:09;6.50;99.90
6843;DHT22;3460;52.028;8.916;2023-12-20T18:06:36;6.50;99.90
6843;DHT22;3460;52.028;8.916;2023-12-20T18:09:04;6.60;99.90
6843;DHT22;3460;52.028;8.916;2023-12-20T18:11:31;6.60;99.90
6843;DHT22;3460;52.028;8.916;2023-12-20T18:13:58;6.60;99.90
6843;DHT22;3460;52.028;8.916;2023-12-20T18:16:24;6.70;99.90
6843;DHT22;3460;52.028;8.916;2023-12-20T18:18:51;6.70;99.90
6843;DHT22;3460;52.028;8.916;2023-12-20T18:21:18;6.70;99.90
6843;DHT22;3460;52.028;8.916;2023-12-20T18:23:45;6.70;99.90
6843;DHT22;3460;52.028;8.916;2023-12-20T18:26:13;6.70;99.90
6843;DHT22;3460;52.028;8.916;2023-12-20T18:28:40;6.70;99.90
6843;DHT22;3460;52.028;8.916;2023-12-20T18:31:06;6.70;99.90
6843;DHT22;3460;52.028;8.916;2023-12-20T18:33:33;6.80;99.90
6843;DHT22;3460;52.028;8.916;2023-12-20T18:36:01;6.80;99.90
6843;DHT22;3460;52.028;8.916;2023-12-20T18:38:28;6.80;99.90
6843;DHT22;3460;52.028;8.916;2023-12-20T18:41:00;6.80;99.90
6843;DHT22;3460;52.028;8.916;2023-12-20T18:43:28;6.80;99.90
6843;DHT22;3460;52.028;8.916;2023-12-20T18:45:55;6.80;99.90
6843;DHT22;3460;52.028;8.916;2023-12-20T18:48:22;6.80;99.90
6843;DHT22;3460;52.028;8.916;2023-12-20T18:50:49;6.80;99.90
6843;DHT22;3460;52.028;8.916;2023-12-20T18:53:16;6.80;99.90
6843;DHT22;3460;52.028;8.916;2023-12-20T18:55:43;6.80;99.90
6843;DHT22;3460;52.028;8.916;2023-12-20T18:58:09;6.90;99.90
6843;DHT22;3460;52.028;8.916;2023-12-20T19:00:40;6.90;99.90
6843;DHT22;3460;52.028;8.916;2023-12-20T19:03:07;6.90;99.90
6843;DHT22;3460;52.028;8.916;2023-12-20T19:05:34;6.90;99.90
6843;DHT22;3460;52.028;8.916;2023-12-20T19:08:01;6.90;99.90
6843;DHT22;3460;52.028;8.916;2023-12-20T19:10:27;6.90;99.90
6843;DHT22;3460;52.028;8.916;2023-12-20T19:12:54;6.90;99.90
6843;DHT22;3460;52.028;8.916;2023-12-20T19:15:21;7.00;99.90
6843;DHT22;3460;52.028;8.916;2023-12-20T19:17:49;7.00;99.90
6843;DHT22;3460;52.028;8.916;2023-12-20T19:20:16;7.00;99.90
6843;DHT22;3460;52.028;8.916;2023-12-20T19:22:44;6.90;99.90
6843;DHT22;3460;52.028;8.916;2023-12-20T19:25:12;7.00;99.90
6843;DHT22;3460;52.028;8.916;2023-12-20T19:27:39;7.00;99.90
6843;DHT22;3460;52.028;8.916;2023-12-20T19:30:07;7.00;99.90
6843;DHT22;3460;52.028;8.916;2023-12-20T19:32:34;6.90;99.90
6843;DHT22;3460;52.028;8.916;2023-12-20T19:35:02;7.00;99.90
6843;DHT22;3460;52.028;8.916;2023-12-20T19:37:29;6.90;99.90
6843;DHT22;3460;52.028;8.916;2023-12-20T19:39:56;6.90;99.90
6843;DHT22;3460;52.028;8.916;2023-12-20T19:42:23;7.00;99.90
6843;DHT22;3460;52.028;8.916;2023-12-20T19:44:51;6.90;99.90
6843;DHT22;3460;52.028;8.916;2023-12-20T19:47:18;7.00;99.90
6843;DHT22;3460;52.028;8.916;2023-12-20T19:49:45;7.00;99.90
6843;DHT22;3460;52.028;8.916;2023-12-20T19:52:13;7.00;99.90